Myra, Texas
Current Conditions -  °F | °C
As of 6:15 PM on Friday 21 Nov 2014 (Local Time) from KGLE Reporting Station
Overcast Overcast  
Wind Chill: 63°   Ceiling: 1000
Heat Index: 63°   Visibility: 7mi
Dew Point: 59°   Wind: 10mph
Humidity: 89%   Direction: 130°SE
Pressure: 30.06"   Gusts: NA
Location:  33.62°N, 97.31°W
Report Text: KGLE 220015Z AUTO 13009KT 7SM OVC010 17/15 A3006 RMK AO2 T01710152
Loading
Personal Weather Stations






























Interactive Weather Map New forecast layout! Learn more

10-Day Weather Forecast

Advertisements
Track Severe Weather on mobile